Ride Results

Watagan Mountains (23-04-2006)
Ride distance: 80.0 km

Outcomes - Watagan Mountains (23-04-2006)
Division No. of Entries Retired / DNE Completed Withdrawn Ineligible V/O Percentage Completed
HW 17 - 12 - - 5 70.59%
MW 35 - 27 1 - 7 77.14%
LW 21 - 14 - - 7 66.67%
JN 3 - 2 - - 1 66.67%
Totals 76 - 55 1 - 20 72.37%
Results - Watagan Mountains (23-04-2006)
No. Rider Horse Place Time Leg Speeds Total
Km/Hr
H/R bpm
Heavyweight
34 Marty Gregson Aloha Kaiser 1 4:48:00 20.8, 13.8 16.67 27, 38, 45 (Avg:41)
8 Brian Norton Gusunder 2 4:52:00 15.3, 17.6 16.44 30, 37, 45 (Avg:41)
78 Virginia Blain Salam Mezzlah 3 5:20:00 19.3, 12.2 15.00 32, 54, 58 (Avg:56)
42 Rex Cox Ausden Kon Tiki 4 5:44:00 15.8, 12.4 13.95 34, 48, 57 (Avg:52)
59 Marylou Locke Ally 5 5:55:00 16.7, 11.3 13.52 33, 42, 50 (Avg:46)
30 Allan Caslick Cherox Qadir 6 6:00:00 13.3, 13.3 13.33 25, 38, 39 (Avg:38)
11 Craig Exley Widgy 7 6:17:00 13.7, 11.8 12.73 35, 48, 60 (Avg:54)
39 Kevin Sayer Canyonleigh Stargazer 8 6:29:00 13.3, 11.4 12.34 37, 41, 43 (Avg:42)
46 Bruce Thornton Coco 9 7:38:00 13.1, 8.6 10.48 31, 43, 46 (Avg:44)
41 John Briggs Ausden Sahara Bey 10 7:59:00 12.0, 8.5 10.02 33, 42, 52 (Avg:47)
35 Haydn Fisher Umayyed Silver Taye 11 8:37:00 11.0, 8.0 9.28 31, 43, 43 (Avg:43)
67 Mark Freeman Cedar Ridge Divide and Rule 12 8:41:00 10.8, 7.9 9.21 52, 42, 44 (Avg:43)
54 Steve Broadbent Kynnum Park Sahara Lame L2 0:00:00 11.4, 14.0 - 39, 43, 49 (Avg:46)
17 Greg Moore Parkview Armageddon Lame L2 0:00:00 13.1, 8.5 - 37, 43, 55 (Avg:49)
58 Tony Warren Nevertire Magnum Lame L2 0:00:00 11.0, 9.2 - 36, 47, 57 (Avg:52)
74 Neil Clarkson Hamamas Wahwina Lame L1 0:00:00 11.0 - 42, 42 (Avg:42)
53 Tom Perkins Snr Sa'argacious Heart Rate L1 0:00:00 10.4 - 42, 57 (Avg:57)
Middleweight
75 Howard Harris Harmere Turfan 1 3:52:00 23.9, 18.1 20.69 35, 39, 46 (Avg:42)
79 Mark Harvey Judstan Sharwayn 2 4:33:00 22.6, 14.3 17.58 40, 46, 54 (Avg:50)
20 Jennifer Gilbertson Kurrajong Shadad 3 4:48:00 14.2, 19.9 16.67 37, 38, 47 (Avg:42)
51 Robyn Hillier Marneross Maelaeki 4 5:44:00 16.6, 11.9 13.95 35, 42, 48 (Avg:45)
26 Gaye Kerr Macquarie Park Silver Angel 5 5:50:00 15.9, 11.9 13.71 36, 42, 51 (Avg:46)
60 Bob Locke Aratahnes Supa-Nova 6 5:55:00 16.7, 11.3 13.52 37, 44, 49 (Avg:46)
24 Margaret Boland Iviore 7 6:00:00 13.3, 13.3 13.33 31, 40, 45 (Avg:42)
76 Lindsay Hine Harmere Amira 7 6:00:00 13.2, 13.4 13.33 33, 39, 44 (Avg:41)
65 Sally Griffin Jualane Park Apollo 9 6:17:00 13.4, 12.1 12.73 38, 44, 47 (Avg:45)
56 Stephanie Grolimund Aloha Vikara 10 6:39:00 14.2, 10.4 12.03 32, 42, 55 (Avg:48)
25 Allana Rempel Claremont Park Breanne 11 6:48:00 13.4, 10.4 11.76 32, 40, 44 (Avg:42)
71 April Bonham Joda Shantilly 12 7:10:00 12.0, 10.3 11.16 33, 40, 45 (Avg:42)
70 Stuart Hitchcock Farras 12 7:10:00 12.0, 10.3 11.16 40, 46, 58 (Avg:52)
33 David Player Hazeldean Falaan 14 7:42:00 13.1, 8.6 10.39 32, 43, 47 (Avg:45)
57 Peter Brown Heste Arabique Waterloo 15 7:43:00 13.2, 8.5 10.37 40, 54, 55 (Avg:54)
14 Marita Rifai Tuldar Slingshot 16 7:45:00 13.1, 8.5 10.32 47, 40, 44 (Avg:42)
16 Garry Weis Jazz-mann Fame Dancer 16 7:45:00 13.1, 8.5 10.32 33, 47, 57 (Avg:52)
19 Megan Edey Zagora 18 7:49:00 12.9, 8.4 10.23 32, 39, 43 (Avg:41)
37 Fiona Meller Malu Vale Embers 19 7:53:00 12.2, 8.6 10.15 33, 40, 45 (Avg:42)
38 Kerry Topic Shazam 19 7:53:00 12.2, 8.6 10.15 37, 43, 52 (Avg:47)
61 Tracy Haack Romac Ariele 21 7:57:00 11.0, 9.2 10.06 29, 38, 42 (Avg:40)
9 Denise Milton Linden Johar 22 7:59:00 12.4, 8.3 10.02 36, 45, 48 (Avg:46)
52 Christine Purton Coolahlee Park Anka 22 7:59:00 13.5, 7.9 10.02 40, 38, 46 (Avg:42)
3 Diane Munro Speedy 24 8:30:00 10.8, 8.3 9.41 31, 39, 51 (Avg:45)
29 Ben Caslick A'Landell Impression 25 8:37:00 11.0, 8.0 9.28 35, 39, 41 (Avg:40)
36 Gail Fisher Aylah 25 8:37:00 11.0, 8.0 9.28 32, 41, 52 (Avg:46)
69 Lesley Freeman Cedar Ridge Musketeer 27 8:41:00 11.0, 7.9 9.21 33, 34, 36 (Avg:35)
68 Brodie Freeman Cedar Ridge Narnia Lame L2 0:00:00 11.0, 7.9 - 44, 45, 51 (Avg:48)
73 Renea McCready Tallawarra Scoot Lame L2 0:00:00 13.6, 10.4 - 40, 38, 42 (Avg:40)
31 Shan Symons Clovelly Park Kazeem Lame L2 0:00:00 13.1, 8.6 - 26, 41, 46 (Avg:43)
15 Peter Kelly Wollumbin Faiz Lame L1 0:00:00 17.6 - 31, 40 (Avg:40)
2 Karin Santoso Castlebar Musteke Lame L1 0:00:00 13.1 - 30, 42 (Avg:42)
10 Fritz Seehofer EL-Barana Serbiyah Lame L1 0:00:00 11.7 - 23, 33 (Avg:33)
80 Phillip Howarth Yardin Widthdrawn P/R 0:00:00 - - 35
55 Rene Schipper Taminga Lame P/R 0:00:00 - - 30
Lightweight
50 Nicole Dookwah Taliah 1 4:51:00 17.3, 15.6 16.49 33, 41, 45 (Avg:43)
5 Emma McMurrich Amir Jasara 2 5:38:00 15.1, 13.3 14.20 35, 44, 47 (Avg:45)
40 Melanie Anderson Jasmine Minstrel 3 5:44:00 15.8, 12.4 13.95 32, 41, 48 (Avg:44)
62 Catherine Chapman Tarkhim Shah Deserts Fyre 4 6:29:00 13.3, 11.4 12.34 32, 44, 57 (Avg:50)
43 Pam Markham Junack Octavia 5 7:16:00 13.4, 9.3 11.01 36, 43, 47 (Avg:45)
44 Jenny Vandervelden Mindari High Flyer 5 7:16:00 13.4, 9.3 11.01 35, 45, 43 (Avg:44)
6 Julie Brooks Aloha Byshara 7 7:21:00 13.2, 9.2 10.88 30, 40, 42 (Avg:41)
48 Carole Sikyr Cathmantha 8 7:38:00 13.1, 8.6 10.48 25, 32, 40 (Avg:36)
45 Lyndell McGowan Faym El Kadet 9 7:43:00 15.1, 7.8 10.37 30, 39, 51 (Avg:45)
18 Claire Edey Cliveden Montsegur 10 7:49:00 12.9, 8.4 10.23 30, 33, 40 (Avg:36)
27 Ava Pellizzari Zzariava Valentino 11 7:50:00 13.1, 8.3 10.21 34, 42, 43 (Avg:42)
63 Rebecca Hogan Shemaih Bey Bert 12 7:59:00 13.5, 7.9 10.02 40, 42, 51 (Avg:46)
49 Jan Wade Hajra Leonie 12 7:59:00 12.9, 8.1 10.02 32, 37, 42 (Avg:39)
13 Kylie Anthony A'Landell Fortune 14 8:37:00 11.9, 7.5 9.28 29, 37, 37 (Avg:37)
64 Felicity Baird Raymar Sabah Lame L2 0:00:00 13.1, 13.1 - 40, 41, 44 (Avg:42)
12 Jacky Barlow Dashanda Jamia Heart Rate L2 0:00:00 11.9, 7.5 - 42, 45, 62 (Avg:53)
4 Abby McMurrich Auscot Park Yasmin Lame L2 0:00:00 12.9, 8.1 - 34, 39, 51 (Avg:45)
72 Brad Dillon Fire Phoenix Lame L1 0:00:00 15.1 - 41, 44 (Avg:44)
1 Anne Hills Springmead Tawny Port Lame L1 0:00:00 22.6 - 29, 38 (Avg:38)
22 Sue Todd PPP Kool Pashin Lame L1 0:00:00 12.1 - 37, 52 (Avg:52)
47 Jodi Dewick PPP Xan Lame P/R 0:00:00 - - 28
Junior
77 Zoe Locke Master Renaut (Ferrymaster at Webbs Creek) 1 4:48:00 17.3, 15.9 16.67 31, 37, 43 (Avg:40)
28 Victoria Pellizari Razorback Blue Kakadu 2 7:50:00 13.1, 8.3 10.21 31, 36, 39 (Avg:37)
32 Louise Wormell Ausden Monet Lame L2 0:00:00 13.1, 12.0 - 36, 38, 48 (Avg:43)